Time;durP1;ratioP1;P1;durP2;ratioP2;P2;SDS_P1;SDS_P2;PMS_P1;PMS_P2;Temp;Humidity;BMP_temperature;BMP_pressure;BME280_temperature;BME280_humidity;BME280_pressure;Samples;Min_cycle;Max_cycle;Signal;HPM_P1;HPM_P2
2023/04/14 00:00:35;;;;;;;5.47;4.10;;;;;;;6.55;100.00;98114.63;5061724;28;20211;-77
2023/04/14 00:03:01;;;;;;;5.43;4.33;;;;;;;6.51;100.00;98108.13;5088603;28;20207;-77
2023/04/14 00:05:29;;;;;;;5.20;4.10;;;;;;;6.57;100.00;98112.53;5088919;28;20184;-78
2023/04/14 00:07:56;;;;;;;4.87;3.70;;;;;;;6.58;100.00;98111.47;5088955;28;20865;-78
2023/04/14 00:10:23;;;;;;;3.13;2.83;;;;;;;6.57;100.00;98116.03;5072020;28;20196;-78
2023/04/14 00:12:50;;;;;;;2.73;2.50;;;;;;;6.52;100.00;98115.91;5090724;28;20187;-78
2023/04/14 00:15:17;;;;;;;2.00;1.87;;;;;;;6.56;100.00;98116.25;5090551;28;20195;-78
2023/04/14 00:17:44;;;;;;;1.77;1.57;;;;;;;6.51;100.00;98106.28;5089750;28;20191;-78
2023/04/14 00:20:11;;;;;;;1.63;1.50;;;;;;;6.55;100.00;98115.44;5089985;28;20215;-78
2023/04/14 00:22:37;;;;;;;1.70;1.60;;;;;;;6.52;100.00;98102.59;5089848;28;20932;-78
2023/04/14 00:25:05;;;;;;;1.50;1.40;;;;;;;6.53;100.00;98098.88;5075198;28;20200;-78
2023/04/14 00:27:31;;;;;;;1.90;1.40;;;;;;;6.51;100.00;98100.16;5090459;28;20200;-78
2023/04/14 00:29:58;;;;;;;1.70;1.40;;;;;;;6.42;100.00;98098.88;5089997;28;20200;-78
2023/04/14 00:32:25;;;;;;;1.47;1.37;;;;;;;6.38;100.00;98090.56;5088629;28;21015;-78
2023/04/14 00:34:51;;;;;;;1.30;1.20;;;;;;;6.34;100.00;98092.06;5090077;28;21153;-77
2023/04/14 00:37:18;;;;;;;1.50;1.40;;;;;;;6.32;100.00;98093.31;5076323;28;21100;-78
2023/04/14 00:39:45;;;;;;;1.87;1.00;;;;;;;6.18;100.00;98101.50;5084642;28;20522;-78
2023/04/14 00:42:11;;;;;;;1.30;1.20;;;;;;;6.28;100.00;98106.25;5090451;28;20319;-79
2023/04/14 00:44:38;;;;;;;1.17;1.00;;;;;;;6.24;100.00;98094.47;5090191;28;20187;-78
2023/04/14 00:47:05;;;;;;;1.30;1.20;;;;;;;6.26;100.00;98099.53;5089567;28;20189;-78
2023/04/14 00:49:32;;;;;;;1.10;0.90;;;;;;;6.23;100.00;98090.19;5073930;28;20787;-77
2023/04/14 00:51:58;;;;;;;0.87;0.87;;;;;;;6.20;100.00;98099.41;5089304;28;20418;-77
2023/04/14 00:54:26;;;;;;;1.03;0.90;;;;;;;6.11;100.00;98103.44;5070690;28;20199;-77
2023/04/14 00:56:54;;;;;;;1.20;0.73;;;;;;;6.01;100.00;98105.03;5089607;28;20294;-78
2023/04/14 00:59:21;;;;;;;0.67;0.67;;;;;;;5.95;100.00;98108.59;5071378;28;20222;-79
2023/04/14 01:01:47;;;;;;;1.50;0.70;;;;;;;5.96;100.00;98110.22;5089039;28;20270;-78
2023/04/14 01:04:18;;;;;;;2.10;0.70;;;;;;;5.82;100.00;98109.56;5085998;28;20207;-79
2023/04/14 01:06:45;;;;;;;0.60;0.60;;;;;;;5.81;100.00;98101.81;5079153;28;20183;-77
2023/04/14 01:09:12;;;;;;;1.30;0.70;;;;;;;5.87;100.00;98099.13;5087155;28;20477;-78
2023/04/14 01:12:06;;;;;;;0.90;0.50;;;;;;;5.73;100.00;98102.97;5076203;28;20933;-79
2023/04/14 01:14:43;;;;;;;0.70;0.50;;;;;;;5.72;100.00;98101.34;5071278;28;20192;-78
2023/04/14 01:17:20;;;;;;;1.80;0.53;;;;;;;5.59;100.00;98106.81;5086423;28;20187;-78
2023/04/14 01:20:05;;;;;;;0.50;0.50;;;;;;;5.46;100.00;98115.75;5077759;28;20991;-78
2023/04/14 01:22:35;;;;;;;0.50;0.50;;;;;;;5.52;100.00;98117.53;5072556;28;20224;-77
2023/04/14 01:25:48;;;;;;;0.40;0.40;;;;;;;5.43;100.00;98118.06;5076080;28;20939;-79
2023/04/14 01:28:53;;;;;;;0.37;0.37;;;;;;;5.35;100.00;98113.88;5035554;28;20199;-76
2023/04/14 01:31:25;;;;;;;0.30;0.30;;;;;;;5.16;100.00;98113.06;5073105;28;20191;-78
2023/04/14 01:34:03;;;;;;;0.30;0.30;;;;;;;5.18;100.00;98113.63;5082701;28;20202;-77
2023/04/14 01:36:37;;;;;;;0.20;0.20;;;;;;;5.06;100.00;98115.41;5070482;28;20270;-78
2023/04/14 01:39:07;;;;;;;0.40;0.20;;;;;;;4.99;100.00;98125.31;5044708;28;20231;-77
2023/04/14 01:41:38;;;;;;;0.60;0.30;;;;;;;4.92;100.00;98124.56;5066839;28;20289;-77
2023/04/14 01:44:05;;;;;;;0.10;0.10;;;;;;;4.88;100.00;98134.81;5065969;28;20195;-78
2023/04/14 01:46:33;;;;;;;0.17;0.17;;;;;;;4.76;100.00;98123.25;5066660;28;20211;-78
2023/04/14 01:49:00;;;;;;;0.20;0.20;;;;;;;4.68;100.00;98120.91;5044500;28;20556;-79
2023/04/14 01:51:28;;;;;;;0.33;0.10;;;;;;;4.71;100.00;98114.38;5066095;28;20229;-78
2023/04/14 01:53:55;;;;;;;0.10;0.10;;;;;;;4.70;100.00;98108.25;5047222;28;20211;-78
2023/04/14 01:56:23;;;;;;;0.10;0.10;;;;;;;4.66;100.00;98104.41;5070183;28;20184;-78
2023/04/14 01:58:50;;;;;;;0.47;0.10;;;;;;;4.62;100.00;98103.19;5069627;28;20516;-78
2023/04/14 02:01:17;;;;;;;0.50;0.10;;;;;;;4.61;100.00;98091.00;5066493;28;20215;-77
2023/04/14 02:03:46;;;;;;;0.30;0.20;;;;;;;4.65;100.00;98100.13;5063718;28;20945;-77
2023/04/14 02:06:13;;;;;;;0.20;0.10;;;;;;;4.63;100.00;98093.41;5049121;28;20269;-77
2023/04/14 02:08:40;;;;;;;0.10;0.10;;;;;;;4.55;100.00;98077.78;5063175;28;20180;-77
2023/04/14 02:11:08;;;;;;;0.30;0.10;;;;;;;4.50;100.00;98065.16;5064800;28;20287;-77
2023/04/14 02:13:37;;;;;;;0.10;0.10;;;;;;;4.40;100.00;98060.34;5047815;28;20196;-78
2023/04/14 02:16:05;;;;;;;0.10;0.10;;;;;;;4.53;100.00;98062.06;5050418;28;20188;-77
2023/04/14 02:18:32;;;;;;;0.30;0.10;;;;;;;4.46;100.00;98056.03;5066817;28;20197;-77
2023/04/14 02:21:00;;;;;;;0.00;0.00;;;;;;;4.38;100.00;98040.41;5066000;28;20952;-77
2023/04/14 02:23:27;;;;;;;0.30;0.00;;;;;;;4.28;100.00;98046.22;5063093;28;21007;-78
2023/04/14 02:26:01;;;;;;;0.20;0.10;;;;;;;4.25;100.00;98046.63;5068493;28;20216;-77
2023/04/14 02:28:31;;;;;;;0.10;0.10;;;;;;;4.19;100.00;98044.03;5068960;28;20188;-78
2023/04/14 02:30:59;;;;;;;0.10;0.00;;;;;;;4.29;100.00;98034.56;5052298;28;20652;-77
2023/04/14 02:33:28;;;;;;;0.27;0.10;;;;;;;4.26;100.00;98042.94;5071327;28;20945;-77
2023/04/14 02:36:05;;;;;;;0.10;0.00;;;;;;;4.21;100.00;98041.97;5052539;28;20277;-78
2023/04/14 02:38:45;;;;;;;0.13;0.10;;;;;;;4.11;100.00;98041.66;5092415;28;20311;-77
2023/04/14 02:41:19;;;;;;;0.37;0.20;;;;;;;4.06;100.00;98028.25;5093625;28;20742;-78
2023/04/14 02:44:05;;;;;;;0.50;0.20;;;;;;;4.17;100.00;98019.59;5093401;28;20199;-78
2023/04/14 02:46:38;;;;;;;0.00;0.00;;;;;;;4.05;100.00;98005.44;5092900;28;20192;-78
2023/04/14 02:49:07;;;;;;;0.27;0.10;;;;;;;4.20;100.00;98016.50;5093305;28;20291;-78
2023/04/14 02:51:35;;;;;;;0.13;0.10;;;;;;;4.16;100.00;98002.88;5076277;28;20677;-79
2023/04/14 02:54:03;;;;;;;0.00;0.00;;;;;;;4.20;100.00;98011.22;5092082;28;20288;-78
2023/04/14 02:56:39;;;;;;;0.00;0.00;;;;;;;4.13;100.00;98015.75;5078366;28;20206;-77
2023/04/14 02:59:06;;;;;;;0.00;0.00;;;;;;;4.24;100.00;98013.22;5095045;28;20282;-77
2023/04/14 03:01:35;;;;;;;1.00;0.00;;;;;;;4.25;100.00;98008.69;5076319;28;20242;-77
2023/04/14 03:04:02;;;;;;;0.13;0.00;;;;;;;4.26;100.00;98012.97;5074453;28;20270;-77
2023/04/14 03:06:32;;;;;;;0.03;0.03;;;;;;;4.15;100.00;98026.97;5092855;28;20188;-77
2023/04/14 03:08:59;;;;;;;0.00;0.00;;;;;;;4.22;100.00;98014.44;5094208;28;20192;-77
2023/04/14 03:11:27;;;;;;;0.40;0.10;;;;;;;4.12;100.00;98027.38;5092727;28;20200;-77
2023/04/14 03:13:55;;;;;;;0.00;0.00;;;;;;;4.06;100.00;98025.59;5093294;28;20188;-77
2023/04/14 03:16:22;;;;;;;0.50;0.20;;;;;;;4.12;100.00;98025.53;5076411;28;20192;-77
2023/04/14 03:18:50;;;;;;;0.20;0.20;;;;;;;4.17;100.00;98032.84;5076392;28;20563;-78
2023/04/14 03:21:18;;;;;;;0.57;0.10;;;;;;;4.19;100.00;98028.13;5093287;28;20625;-77
2023/04/14 03:23:45;;;;;;;0.10;0.10;;;;;;;4.07;100.00;98028.03;5093116;28;20253;-78
2023/04/14 03:26:17;;;;;;;0.37;0.10;;;;;;;4.04;100.00;98014.41;5093341;28;20195;-79
2023/04/14 03:28:47;;;;;;;0.83;0.10;;;;;;;4.18;100.00;98015.91;5092934;28;20571;-78
2023/04/14 03:31:15;;;;;;;0.10;0.10;;;;;;;4.20;100.00;98003.25;5076653;28;20859;-78
2023/04/14 03:33:48;;;;;;;0.33;0.10;;;;;;;4.11;100.00;97997.41;5076531;28;20709;-78
2023/04/14 03:36:16;;;;;;;0.20;0.10;;;;;;;4.12;100.00;97995.56;5071311;28;20223;-79
2023/04/14 03:38:43;;;;;;;0.10;0.00;;;;;;;4.15;100.00;97998.63;5096182;28;20687;-78
2023/04/14 03:41:10;;;;;;;0.10;0.10;;;;;;;4.21;100.00;97991.59;5096860;28;20269;-78
2023/04/14 03:43:38;;;;;;;0.07;0.00;;;;;;;4.05;100.00;97978.94;5085845;28;20187;-78
2023/04/14 03:46:09;;;;;;;0.50;0.10;;;;;;;4.01;100.00;97975.91;5097511;28;20695;-79
2023/04/14 03:48:41;;;;;;;0.37;0.10;;;;;;;3.93;100.00;97974.31;5098160;28;20199;-79
2023/04/14 03:51:12;;;;;;;0.40;0.20;;;;;;;3.90;100.00;97980.06;5104882;28;20203;-79
2023/04/14 03:53:40;;;;;;;0.10;0.10;;;;;;;3.90;100.00;97966.81;5098490;28;20267;-79
2023/04/14 03:56:12;;;;;;;0.13;0.10;;;;;;;3.98;100.00;97958.59;5072999;28;20282;-78
2023/04/14 03:58:40;;;;;;;0.30;0.10;;;;;;;3.92;100.00;97966.59;5092866;28;20203;-78
2023/04/14 04:01:07;;;;;;;0.20;0.20;;;;;;;3.94;100.00;97960.06;5064960;28;20200;-79
2023/04/14 04:03:35;;;;;;;0.20;0.20;;;;;;;4.01;100.00;97933.50;5098608;28;20594;-78
2023/04/14 04:06:03;;;;;;;0.20;0.20;;;;;;;3.87;100.00;97918.75;5080587;28;20200;-78
2023/04/14 04:08:30;;;;;;;0.00;0.00;;;;;;;3.81;100.00;97914.31;5098962;28;20184;-78
2023/04/14 04:10:58;;;;;;;0.10;0.00;;;;;;;3.84;100.00;97909.41;5074171;28;20292;-79
2023/04/14 04:13:25;;;;;;;0.33;0.10;;;;;;;3.84;100.00;97898.81;5098202;28;20199;-78
2023/04/14 04:15:54;;;;;;;0.00;0.00;;;;;;;3.90;100.00;97911.19;5079729;28;20196;-79
2023/04/14 04:18:21;;;;;;;0.33;0.00;;;;;;;3.84;100.00;97903.28;5096469;28;20818;-77
2023/04/14 04:20:49;;;;;;;0.10;0.10;;;;;;;3.86;100.00;97899.41;5096046;28;20212;-78
2023/04/14 04:23:17;;;;;;;0.30;0.07;;;;;;;3.77;100.00;97895.41;5090928;28;20192;-79
2023/04/14 04:25:44;;;;;;;0.10;0.07;;;;;;;3.82;100.00;97892.13;5103255;28;20208;-77
2023/04/14 04:28:19;;;;;;;0.00;0.00;;;;;;;3.69;100.00;97893.03;5096182;28;20199;-79
2023/04/14 04:30:46;;;;;;;0.07;0.00;;;;;;;3.82;100.00;97895.56;5101358;28;20633;-78
2023/04/14 04:33:14;;;;;;;1.07;0.10;;;;;;;3.67;100.00;97886.34;5078118;28;20275;-80
2023/04/14 04:35:41;;;;;;;0.00;0.00;;;;;;;3.78;100.00;97896.22;5080017;28;20195;-79
2023/04/14 04:38:10;;;;;;;0.10;0.10;;;;;;;3.70;100.00;97894.66;5094037;28;20220;-79
2023/04/14 04:40:40;;;;;;;0.13;0.00;;;;;;;3.74;100.00;97900.31;5095577;28;20219;-78
2023/04/14 04:43:26;;;;;;;0.17;0.00;;;;;;;3.77;100.00;97905.19;5101189;28;20212;-78
2023/04/14 04:46:20;;;;;;;0.63;0.10;;;;;;;3.74;100.00;97906.44;5101298;28;20191;-79
2023/04/14 04:48:50;;;;;;;0.10;0.10;;;;;;;3.81;100.00;97912.50;5077877;28;20268;-79
2023/04/14 04:51:17;;;;;;;0.30;0.10;;;;;;;3.76;100.00;97920.28;5079733;28;20219;-79
2023/04/14 04:53:44;;;;;;;0.70;0.10;;;;;;;3.70;100.00;97917.69;5085076;28;20294;-78
2023/04/14 04:56:11;;;;;;;0.07;0.07;;;;;;;3.87;100.00;97916.13;5113296;28;20669;-78
2023/04/14 04:58:37;;;;;;;0.10;0.10;;;;;;;3.76;100.00;97912.34;5113145;28;20184;-78
2023/04/14 05:01:09;;;;;;;0.10;0.10;;;;;;;3.82;100.00;97902.72;5112768;28;20222;-78
2023/04/14 05:03:36;;;;;;;0.60;0.03;;;;;;;3.92;100.00;97898.50;5112745;28;20299;-79
2023/04/14 05:06:03;;;;;;;0.00;0.00;;;;;;;3.89;100.00;97906.91;5096738;28;20544;-78
2023/04/14 05:08:30;;;;;;;0.10;0.00;;;;;;;3.83;100.00;97910.41;5113285;28;20190;-79
2023/04/14 05:10:57;;;;;;;0.67;0.10;;;;;;;3.74;100.00;97919.66;5112830;28;20278;-78
2023/04/14 05:13:24;;;;;;;0.40;0.10;;;;;;;3.78;100.00;97928.81;5112802;28;20187;-78
2023/04/14 05:15:51;;;;;;;0.10;0.10;;;;;;;3.66;100.00;97917.31;5112960;28;20207;-79
2023/04/14 05:18:18;;;;;;;0.40;0.10;;;;;;;3.72;100.00;97916.44;5099463;28;20554;-77
2023/04/14 05:20:45;;;;;;;0.20;0.10;;;;;;;3.81;100.00;97916.97;5112418;28;20210;-79
2023/04/14 05:23:12;;;;;;;0.07;0.03;;;;;;;3.79;100.00;97917.19;5112908;28;20180;-78
2023/04/14 05:25:39;;;;;;;0.00;0.00;;;;;;;3.78;100.00;97912.13;5112324;28;20188;-78
2023/04/14 05:28:07;;;;;;;0.47;0.00;;;;;;;3.80;100.00;97912.69;5112416;28;20195;-78
2023/04/14 05:30:33;;;;;;;0.13;0.10;;;;;;;3.90;100.00;97920.97;5108619;28;20196;-78
2023/04/14 05:33:00;;;;;;;0.00;0.00;;;;;;;3.95;100.00;97929.06;5112469;28;20222;-78
2023/04/14 05:35:27;;;;;;;0.20;0.10;;;;;;;3.88;100.00;97921.19;5112269;28;20641;-79
2023/04/14 05:37:53;;;;;;;0.10;0.10;;;;;;;3.94;100.00;97920.31;5112419;28;20717;-79
2023/04/14 05:40:21;;;;;;;0.33;0.13;;;;;;;3.95;100.00;97937.03;5112218;28;20310;-78
2023/04/14 05:42:48;;;;;;;0.50;0.10;;;;;;;3.98;100.00;97961.25;5110985;28;20188;-78
2023/04/14 05:45:14;;;;;;;0.13;0.13;;;;;;;4.10;100.00;97971.94;5096092;28;20249;-78
2023/04/14 05:47:41;;;;;;;0.43;0.30;;;;;;;4.06;100.00;97960.13;5110779;28;20192;-78
2023/04/14 05:50:08;;;;;;;0.20;0.20;;;;;;;4.11;100.00;97951.53;5112548;28;20190;-78
2023/04/14 05:52:35;;;;;;;0.17;0.17;;;;;;;4.13;100.00;97958.25;5112597;28;20219;-79
2023/04/14 05:55:01;;;;;;;1.17;0.20;;;;;;;4.13;100.00;97949.50;5112219;28;20192;-79
2023/04/14 05:57:28;;;;;;;0.73;0.20;;;;;;;4.19;100.00;97960.03;5112552;28;20184;-79
2023/04/14 05:59:55;;;;;;;0.30;0.30;;;;;;;4.26;100.00;97963.41;5112447;28;20222;-78
2023/04/14 06:02:23;;;;;;;0.13;0.10;;;;;;;4.34;100.00;97952.50;5097304;28;20191;-78
2023/04/14 06:04:50;;;;;;;0.93;0.20;;;;;;;4.34;100.00;97951.69;5116285;28;20231;-78
2023/04/14 06:07:17;;;;;;;0.20;0.20;;;;;;;4.35;100.00;97954.13;5113680;28;20191;-78
2023/04/14 06:09:45;;;;;;;0.33;0.20;;;;;;;4.35;100.00;97950.69;5099667;28;20219;-79
2023/04/14 06:12:13;;;;;;;0.17;0.17;;;;;;;4.38;100.00;97951.06;5114764;28;20262;-78
2023/04/14 06:14:39;;;;;;;0.93;0.20;;;;;;;4.34;100.00;97949.88;5113076;28;20196;-79
2023/04/14 06:17:06;;;;;;;0.20;0.20;;;;;;;4.30;100.00;97947.88;5115933;28;20187;-79
2023/04/14 06:19:32;;;;;;;0.50;0.20;;;;;;;4.41;100.00;97952.44;5116137;28;20649;-79
2023/04/14 06:21:59;;;;;;;0.20;0.20;;;;;;;4.42;100.00;97954.09;5103070;28;20226;-78
2023/04/14 06:24:26;;;;;;;0.33;0.23;;;;;;;4.43;100.00;97935.28;5116025;28;20622;-79
2023/04/14 06:26:53;;;;;;;0.20;0.10;;;;;;;4.40;100.00;97940.22;5081949;28;20616;-79
2023/04/14 06:29:20;;;;;;;0.40;0.10;;;;;;;4.34;100.00;97943.75;5118817;27;20191;-78
2023/04/14 06:31:46;;;;;;;0.10;0.10;;;;;;;4.36;100.00;97954.94;5115543;28;20198;-78
2023/04/14 06:34:13;;;;;;;0.20;0.20;;;;;;;4.36;100.00;97947.81;5115896;28;20523;-78
2023/04/14 06:36:40;;;;;;;0.33;0.10;;;;;;;4.39;100.00;97926.16;5114228;28;20201;-78
2023/04/14 06:39:06;;;;;;;0.27;0.03;;;;;;;4.41;100.00;97929.41;5115280;28;20302;-77
2023/04/14 06:41:33;;;;;;;0.20;0.10;;;;;;;4.53;100.00;97923.34;5117053;27;20203;-79
2023/04/14 06:44:02;;;;;;;0.50;0.10;;;;;;;4.56;100.00;97922.91;5099375;28;20275;-78
2023/04/14 06:46:29;;;;;;;0.10;0.10;;;;;;;4.47;100.00;97917.09;5113222;28;20215;-78
2023/04/14 06:48:56;;;;;;;0.87;0.10;;;;;;;4.48;100.00;97920.56;5115550;28;20194;-78
2023/04/14 06:51:23;;;;;;;0.10;0.10;;;;;;;4.50;100.00;97916.66;5116869;28;20630;-78
2023/04/14 06:53:49;;;;;;;0.10;0.10;;;;;;;4.55;100.00;97919.44;5116603;28;20191;-79
2023/04/14 06:56:16;;;;;;;0.63;0.20;;;;;;;4.60;100.00;97914.28;5115771;28;20180;-78
2023/04/14 06:58:42;;;;;;;0.17;0.10;;;;;;;4.54;100.00;97912.53;5115934;28;20191;-78
2023/04/14 07:01:09;;;;;;;0.40;0.10;;;;;;;4.60;100.00;97902.88;5114562;28;20218;-79
2023/04/14 07:03:37;;;;;;;1.80;0.10;;;;;;;4.63;100.00;97905.88;5116196;28;20219;-79
2023/04/14 07:06:05;;;;;;;0.10;0.10;;;;;;;4.56;100.00;97909.66;5116216;28;20188;-78
2023/04/14 07:08:33;;;;;;;0.10;0.10;;;;;;;4.55;100.00;97902.72;5114594;28;20201;-78
2023/04/14 07:11:02;;;;;;;0.37;0.20;;;;;;;4.47;100.00;97908.34;5097790;28;20188;-78
2023/04/14 07:13:28;;;;;;;0.20;0.20;;;;;;;4.49;100.00;97895.66;5097889;28;20195;-78
2023/04/14 07:15:55;;;;;;;0.40;0.37;;;;;;;4.33;100.00;97891.78;5115884;28;20252;-78
2023/04/14 07:18:22;;;;;;;0.30;0.30;;;;;;;4.40;100.00;97887.19;5103601;28;20186;-78
2023/04/14 07:20:53;;;;;;;0.40;0.20;;;;;;;4.46;100.00;97886.31;5115742;28;20226;-78
2023/04/14 07:23:20;;;;;;;0.27;0.20;;;;;;;4.39;100.00;97882.91;5095211;28;20198;-78
2023/04/14 07:25:51;;;;;;;0.50;0.20;;;;;;;4.40;100.00;97888.00;5096980;28;20187;-78
2023/04/14 07:28:19;;;;;;;0.37;0.30;;;;;;;4.31;100.00;97896.47;5115582;28;20226;-79
2023/04/14 07:30:45;;;;;;;0.50;0.20;;;;;;;4.21;100.00;97901.47;5099968;28;20278;-78
2023/04/14 07:33:13;;;;;;;0.90;0.20;;;;;;;4.29;100.00;97903.84;5115384;28;20215;-78
2023/04/14 07:35:40;;;;;;;0.10;0.10;;;;;;;4.44;100.00;97906.91;5077768;28;20192;-78
2023/04/14 07:38:25;;;;;;;0.17;0.17;;;;;;;4.63;100.00;97908.53;5114804;28;20228;-78
2023/04/14 07:40:51;;;;;;;0.30;0.20;;;;;;;4.68;100.00;97903.38;5115194;28;20201;-78
2023/04/14 07:43:18;;;;;;;0.10;0.10;;;;;;;4.67;100.00;97912.34;5114088;28;20262;-78
2023/04/14 07:45:45;;;;;;;0.10;0.10;;;;;;;4.75;100.00;97917.38;5113018;28;20195;-79
2023/04/14 07:48:12;;;;;;;0.10;0.10;;;;;;;4.73;100.00;97914.13;5103065;28;20261;-78
2023/04/14 07:50:38;;;;;;;0.67;0.20;;;;;;;4.65;100.00;97901.16;5112532;28;20179;-78
2023/04/14 07:53:05;;;;;;;1.03;0.20;;;;;;;4.69;100.00;97909.47;5115201;28;20219;-78
2023/04/14 07:55:32;;;;;;;0.33;0.30;;;;;;;4.75;100.00;97901.44;5115283;28;20187;-79
2023/04/14 07:57:58;;;;;;;0.07;0.07;;;;;;;4.91;100.00;97891.22;5110847;28;20190;-78
2023/04/14 08:00:25;;;;;;;0.77;0.20;;;;;;;4.90;100.00;97886.97;5114780;28;20191;-78
2023/04/14 08:02:52;;;;;;;0.10;0.10;;;;;;;4.90;100.00;97879.78;5104155;28;20226;-78
2023/04/14 08:05:20;;;;;;;0.10;0.10;;;;;;;4.98;100.00;97881.34;5113922;28;20179;-78
2023/04/14 08:07:48;;;;;;;0.33;0.30;;;;;;;5.10;100.00;97871.56;5114604;28;20194;-78
2023/04/14 08:10:15;;;;;;;0.50;0.27;;;;;;;5.18;100.00;97881.88;5107549;28;20242;-79
2023/04/14 08:12:41;;;;;;;0.10;0.07;;;;;;;4.95;100.00;97877.28;5114510;28;20215;-79
2023/04/14 08:15:08;;;;;;;0.47;0.10;;;;;;;5.09;100.00;97864.63;5114379;28;20187;-78
2023/04/14 08:17:35;;;;;;;0.20;0.20;;;;;;;5.12;100.00;97867.66;5114317;28;20287;-79
2023/04/14 08:20:02;;;;;;;1.20;0.20;;;;;;;5.17;100.00;97859.81;5113034;28;20661;-78
2023/04/14 08:22:28;;;;;;;0.20;0.20;;;;;;;5.16;100.00;97847.56;5113369;28;20213;-78
2023/04/14 08:24:55;;;;;;;0.20;0.20;;;;;;;5.08;100.00;97858.53;5114030;28;20221;-80
2023/04/14 08:27:22;;;;;;;0.50;0.20;;;;;;;5.08;100.00;97831.97;5114126;28;20193;-79
2023/04/14 08:29:50;;;;;;;0.60;0.40;;;;;;;5.06;100.00;97834.03;5113094;28;20187;-78
2023/04/14 08:32:17;;;;;;;0.20;0.20;;;;;;;5.07;100.00;97835.66;5113984;28;20233;-78
2023/04/14 08:34:44;;;;;;;0.30;0.20;;;;;;;5.11;100.00;97842.13;5114204;28;20195;-79
2023/04/14 08:37:30;;;;;;;0.37;0.30;;;;;;;5.16;100.00;97844.91;5101989;28;20195;-79
2023/04/14 08:39:57;;;;;;;0.60;0.20;;;;;;;5.07;100.00;97838.31;5113620;28;20705;-78
2023/04/14 08:42:23;;;;;;;0.30;0.20;;;;;;;5.07;100.00;97851.59;5114034;28;20562;-79
2023/04/14 08:44:51;;;;;;;0.63;0.30;;;;;;;5.07;100.00;97851.59;5107799;28;20216;-78
2023/04/14 08:47:18;;;;;;;0.17;0.10;;;;;;;5.04;100.00;97853.91;5111955;28;20223;-79
2023/04/14 08:49:51;;;;;;;0.40;0.30;;;;;;;5.11;100.00;97852.75;5095881;28;20215;-78
2023/04/14 08:52:20;;;;;;;0.83;0.73;;;;;;;4.95;100.00;97855.22;5111563;28;20673;-77
2023/04/14 08:54:49;;;;;;;0.30;0.20;;;;;;;5.01;100.00;97851.69;5098499;28;20191;-77
2023/04/14 08:57:18;;;;;;;0.30;0.30;;;;;;;5.07;100.00;97848.94;5110332;28;20603;-78
2023/04/14 08:59:45;;;;;;;0.40;0.20;;;;;;;4.93;100.00;97844.88;5113991;28;20283;-79
2023/04/14 09:02:12;;;;;;;0.40;0.10;;;;;;;5.06;100.00;97835.88;5092773;28;20268;-78
2023/04/14 09:04:39;;;;;;;0.10;0.10;;;;;;;5.11;100.00;97836.00;5104092;28;20207;-79
2023/04/14 09:07:06;;;;;;;0.57;0.30;;;;;;;5.02;100.00;97851.47;5098224;28;20611;-78
2023/04/14 09:09:33;;;;;;;0.60;0.20;;;;;;;5.06;100.00;97841.19;5105471;28;20240;-78
2023/04/14 09:12:02;;;;;;;0.40;0.10;;;;;;;5.07;100.00;97838.31;5113719;28;20195;-79
2023/04/14 09:14:29;;;;;;;0.40;0.20;;;;;;;5.17;100.00;97845.72;5095824;28;20192;-79
2023/04/14 09:16:56;;;;;;;0.20;0.10;;;;;;;5.16;100.00;97847.56;5113168;28;20192;-77
2023/04/14 09:19:23;;;;;;;0.17;0.10;;;;;;;4.93;100.00;97847.53;5101374;28;20187;-79
2023/04/14 09:21:50;;;;;;;0.10;0.10;;;;;;;4.98;100.00;97841.53;5113779;28;20286;-78
2023/04/14 09:24:28;;;;;;;0.57;0.30;;;;;;;4.97;100.00;97851.34;5099181;28;20183;-78
2023/04/14 09:26:57;;;;;;;0.20;0.20;;;;;;;4.93;100.00;97852.00;5100445;28;20228;-78
2023/04/14 09:29:25;;;;;;;0.63;0.20;;;;;;;4.96;100.00;97855.03;5113104;28;20654;-79
2023/04/14 09:31:52;;;;;;;0.37;0.20;;;;;;;4.88;100.00;97861.47;5094879;28;20195;-78
2023/04/14 09:34:20;;;;;;;0.30;0.20;;;;;;;4.83;100.00;97860.53;5104074;28;20183;-78
2023/04/14 09:37:03;;;;;;;0.57;0.20;;;;;;;4.80;100.00;97864.44;5112829;28;20681;-79
2023/04/14 09:39:31;;;;;;;0.10;0.10;;;;;;;4.80;100.00;97871.59;5112723;28;20239;-77
2023/04/14 09:41:58;;;;;;;0.33;0.20;;;;;;;4.82;100.00;97867.66;5095991;28;20282;-77
2023/04/14 09:44:25;;;;;;;0.10;0.10;;;;;;;4.73;100.00;97886.78;5113005;28;20248;-77
2023/04/14 09:47:06;;;;;;;0.60;0.20;;;;;;;4.62;100.00;97887.56;5094930;28;20266;-77
2023/04/14 09:49:33;;;;;;;0.30;0.20;;;;;;;4.71;100.00;97886.22;5100487;28;20559;-77
2023/04/14 09:52:07;;;;;;;0.43;0.30;;;;;;;4.75;100.00;97890.84;5112940;28;20199;-77
2023/04/14 09:54:34;;;;;;;0.20;0.20;;;;;;;4.85;100.00;97898.25;5112771;28;20183;-78
2023/04/14 09:57:01;;;;;;;0.60;0.20;;;;;;;4.87;100.00;97894.34;5112962;28;20260;-77
2023/04/14 09:59:36;;;;;;;0.57;0.20;;;;;;;4.94;100.00;97890.78;5112821;28;20188;-78
2023/04/14 10:02:05;;;;;;;1.30;0.60;;;;;;;4.96;100.00;97900.13;5088543;28;20705;-76
2023/04/14 10:04:32;;;;;;;0.20;0.20;;;;;;;4.87;100.00;97897.00;5097991;28;20215;-77
2023/04/14 10:06:59;;;;;;;0.23;0.20;;;;;;;5.04;100.00;97891.84;5112903;28;20553;-78
2023/04/14 10:09:27;;;;;;;0.60;0.30;;;;;;;5.03;100.00;97902.72;5112728;28;20191;-77
2023/04/14 10:12:11;;;;;;;0.57;0.20;;;;;;;4.95;100.00;97889.72;5100321;28;20191;-78
2023/04/14 10:14:41;;;;;;;0.33;0.20;;;;;;;5.09;100.00;97901.78;5112709;28;20184;-77
2023/04/14 10:17:09;;;;;;;1.40;0.23;;;;;;;5.12;100.00;97902.16;5113618;28;20215;-77
2023/04/14 10:19:36;;;;;;;0.30;0.30;;;;;;;5.06;100.00;97881.81;5112756;28;20206;-77
2023/04/14 10:22:04;;;;;;;0.30;0.30;;;;;;;5.05;100.00;97903.28;5112302;28;20212;-78
2023/04/14 10:24:31;;;;;;;0.20;0.20;;;;;;;5.14;100.00;97897.41;5094787;28;20260;-77
2023/04/14 10:27:02;;;;;;;0.23;0.10;;;;;;;4.99;100.00;97894.41;5112599;28;20191;-78
2023/04/14 10:29:29;;;;;;;0.30;0.20;;;;;;;4.93;100.00;97899.78;5088148;28;20195;-77
2023/04/14 10:32:02;;;;;;;0.70;0.23;;;;;;;5.18;100.00;97908.41;5095958;28;20565;-77
2023/04/14 10:34:31;;;;;;;0.30;0.10;;;;;;;5.17;100.00;97912.91;5107500;28;20677;-77
2023/04/14 10:37:15;;;;;;;0.13;0.10;;;;;;;5.36;100.00;97907.53;5093251;28;20186;-77
2023/04/14 10:39:41;;;;;;;0.10;0.10;;;;;;;5.55;100.00;97914.38;5097151;28;20306;-77
2023/04/14 10:42:08;;;;;;;0.60;0.20;;;;;;;5.65;100.00;97901.31;5112275;28;20261;-78
2023/04/14 10:44:35;;;;;;;0.30;0.10;;;;;;;5.45;100.00;97912.28;5112577;28;20188;-78
2023/04/14 10:47:08;;;;;;;0.33;0.20;;;;;;;5.52;100.00;97901.53;5096291;28;20188;-78
2023/04/14 10:49:37;;;;;;;0.30;0.20;;;;;;;5.52;100.00;97912.16;5113276;28;20583;-77
2023/04/14 10:52:13;;;;;;;0.57;0.17;;;;;;;5.46;100.00;97903.25;5115956;28;20305;-78
2023/04/14 10:54:52;;;;;;;0.30;0.10;;;;;;;5.44;100.00;97899.22;5115956;28;20223;-78
2023/04/14 10:57:26;;;;;;;0.30;0.30;;;;;;;5.32;100.00;97896.53;5089600;28;20191;-78
2023/04/14 10:59:55;;;;;;;0.20;0.20;;;;;;;5.37;100.00;97901.97;5099401;28;20218;-78
2023/04/14 11:02:29;;;;;;;0.13;0.13;;;;;;;5.42;100.00;97894.13;5099647;28;20739;-77
2023/04/14 11:05:09;;;;;;;0.10;0.10;;;;;;;5.32;100.00;97896.53;5115318;28;20224;-77
2023/04/14 11:07:47;;;;;;;0.30;0.10;;;;;;;5.53;100.00;97890.69;5094369;28;20207;-78
2023/04/14 11:10:23;;;;;;;0.20;0.10;;;;;;;5.33;100.00;97888.34;5105707;28;20187;-77
2023/04/14 11:13:00;;;;;;;0.30;0.10;;;;;;;5.45;100.00;97885.72;5115687;28;20214;-76
2023/04/14 11:15:45;;;;;;;0.40;0.20;;;;;;;5.58;100.00;97887.34;5109682;28;20198;-77
2023/04/14 11:18:16;;;;;;;0.27;0.20;;;;;;;5.48;100.00;97885.25;5114346;28;20238;-77
2023/04/14 11:20:43;;;;;;;0.10;0.10;;;;;;;5.44;100.00;97870.81;5111752;28;20682;-79
2023/04/14 11:23:12;;;;;;;0.20;0.20;;;;;;;5.52;100.00;97867.00;5115260;28;20207;-77
2023/04/14 11:25:39;;;;;;;0.10;0.10;;;;;;;5.47;100.00;97870.34;5115609;27;20188;-78
2023/04/14 11:28:06;;;;;;;0.10;0.10;;;;;;;5.39;100.00;97883.16;5115100;28;20287;-79
2023/04/14 11:30:33;;;;;;;0.13;0.13;;;;;;;5.49;100.00;97878.91;5083627;28;20570;-78
2023/04/14 11:33:00;;;;;;;0.03;0.03;;;;;;;5.42;100.00;97872.88;5115350;28;20703;-77
2023/04/14 11:35:27;;;;;;;0.20;0.20;;;;;;;5.23;100.00;97876.66;5115378;28;20215;-77
2023/04/14 11:37:55;;;;;;;0.40;0.30;;;;;;;5.36;100.00;97876.47;5115771;28;20187;-78
2023/04/14 11:40:23;;;;;;;0.60;0.40;;;;;;;5.25;100.00;97877.25;5114169;28;20238;-77
2023/04/14 11:42:52;;;;;;;0.77;0.60;;;;;;;5.29;100.00;97868.59;5089903;28;20205;-77